Time;durP1;ratioP1;P1;durP2;ratioP2;P2;SDS_P1;SDS_P2;PMS_P1;PMS_P2;Temp;Humidity;BMP_temperature;BMP_pressure;BME280_temperature;BME280_humidity;BME280_pressure;Samples;Min_cycle;Max_cycle;Signal;HPM_P1;HPM_P2
2022/03/04 00:00:49;;;;;;;54.83;28.27;;;;;;;4.96;72.50;100590.25;4936672;29;20586;-81
2022/03/04 00:03:17;;;;;;;51.35;29.02;;;;;;;4.99;72.53;100583.50;4937390;29;20055;-80
2022/03/04 00:05:46;;;;;;;57.78;29.77;;;;;;;5.07;73.00;100584.97;4936797;29;20055;-80
2022/03/04 00:08:14;;;;;;;63.40;29.95;;;;;;;5.24;72.06;100593.97;4936408;29;20055;-80
2022/03/04 00:10:42;;;;;;;55.78;28.90;;;;;;;5.30;71.63;100586.78;4935274;29;20047;-80
2022/03/04 00:13:10;;;;;;;59.15;30.95;;;;;;;5.27;72.04;100592.66;4935349;29;20070;-80
2022/03/04 00:15:38;;;;;;;54.75;28.98;;;;;;;5.27;71.28;100603.53;4935957;29;20522;-80
2022/03/04 00:18:06;;;;;;;58.22;28.88;;;;;;;5.38;70.35;100599.94;4934770;29;20052;-80
2022/03/04 00:20:33;;;;;;;62.60;30.40;;;;;;;5.43;69.86;100595.66;4934172;29;20059;-80
2022/03/04 00:23:01;;;;;;;53.05;28.35;;;;;;;5.48;69.03;100603.91;4935741;29;20062;-80
2022/03/04 00:25:29;;;;;;;62.28;29.17;;;;;;;5.49;70.16;100605.53;4934955;29;20051;-80
2022/03/04 00:27:57;;;;;;;57.65;30.20;;;;;;;5.51;69.26;100608.81;4935034;29;20047;-80
2022/03/04 00:30:25;;;;;;;51.33;28.45;;;;;;;5.54;68.77;100611.06;4933974;29;20529;-80
2022/03/04 00:32:53;;;;;;;59.83;28.55;;;;;;;5.72;67.32;100603.75;4934887;29;20059;-80
2022/03/04 00:35:21;;;;;;;56.17;28.42;;;;;;;5.70;67.46;100601.28;4934647;29;20059;-80
2022/03/04 00:37:49;;;;;;;61.35;30.55;;;;;;;5.67;67.15;100617.25;4935370;29;20066;-80
2022/03/04 00:40:18;;;;;;;57.15;29.08;;;;;;;5.64;67.89;100607.69;4935734;29;20044;-79
2022/03/04 00:42:47;;;;;;;57.45;29.65;;;;;;;5.67;68.10;100609.91;4934192;29;20051;-80
2022/03/04 00:45:15;;;;;;;59.30;29.20;;;;;;;5.67;67.71;100609.91;4935471;29;20047;-80
2022/03/04 00:47:43;;;;;;;58.53;30.40;;;;;;;5.83;67.01;100613.72;4935558;29;20047;-81
2022/03/04 00:50:11;;;;;;;59.10;30.73;;;;;;;5.80;66.57;100616.91;4934891;29;20039;-80
2022/03/04 00:52:39;;;;;;;57.45;29.98;;;;;;;5.96;66.80;100620.69;4934700;29;20058;-80
2022/03/04 00:55:07;;;;;;;56.80;28.50;;;;;;;6.03;67.38;100620.56;4934302;29;20048;-80
2022/03/04 00:57:35;;;;;;;61.97;28.65;;;;;;;6.21;66.37;100619.44;4934129;29;20055;-80
2022/03/04 01:00:05;;;;;;;55.95;28.60;;;;;;;6.10;66.95;100615.78;4934575;29;20060;-80
2022/03/04 01:02:33;;;;;;;55.33;29.08;;;;;;;6.03;67.36;100620.56;4934784;29;20056;-80
2022/03/04 01:05:01;;;;;;;57.75;30.15;;;;;;;5.84;68.61;100618.06;4934231;29;20059;-80
2022/03/04 01:07:30;;;;;;;52.33;28.73;;;;;;;5.90;69.26;100627.09;4946552;29;20051;-80
2022/03/04 01:09:57;;;;;;;54.35;28.23;;;;;;;5.73;70.20;100621.69;4935309;29;20443;-80
2022/03/04 01:12:25;;;;;;;56.13;29.65;;;;;;;5.76;69.94;100615.75;4934863;29;20047;-81
2022/03/04 01:14:54;;;;;;;56.35;28.10;;;;;;;5.96;69.14;100620.69;4934550;29;20063;-81
2022/03/04 01:17:24;;;;;;;56.83;29.50;;;;;;;5.92;69.33;100609.50;4934459;29;20059;-80
2022/03/04 01:19:52;;;;;;;61.75;28.95;;;;;;;6.04;67.98;100612.16;4936906;29;20047;-81
2022/03/04 01:22:20;;;;;;;56.47;28.38;;;;;;;6.01;68.69;100606.38;4938242;29;20062;-80
2022/03/04 01:24:48;;;;;;;53.35;28.25;;;;;;;5.94;69.12;100605.72;4938895;29;20407;-81
2022/03/04 01:27:16;;;;;;;59.13;29.95;;;;;;;5.94;68.88;100606.53;4937829;29;20056;-81
2022/03/04 01:29:44;;;;;;;53.17;28.65;;;;;;;5.97;68.06;100605.22;4939182;29;20051;-81
2022/03/04 01:32:13;;;;;;;57.58;30.23;;;;;;;5.92;68.77;100608.69;4938065;29;20058;-80
2022/03/04 01:34:41;;;;;;;58.10;30.02;;;;;;;5.79;69.79;100607.13;4937413;29;20503;-80
2022/03/04 01:37:09;;;;;;;55.63;28.52;;;;;;;5.88;69.61;100602.91;4939099;29;20052;-81
2022/03/04 01:39:37;;;;;;;57.85;29.58;;;;;;;5.98;69.59;100598.72;4937766;29;20399;-80
2022/03/04 01:42:06;;;;;;;53.85;28.90;;;;;;;6.11;69.00;100600.31;4938824;29;20052;-80
2022/03/04 01:44:34;;;;;;;54.25;28.88;;;;;;;6.20;68.61;100598.78;4937584;29;20055;-80
2022/03/04 01:47:02;;;;;;;55.75;28.88;;;;;;;5.90;70.60;100595.34;4937932;29;20044;-80
2022/03/04 01:49:31;;;;;;;60.60;31.60;;;;;;;5.78;71.89;100591.91;4937775;29;20062;-80
2022/03/04 01:51:59;;;;;;;57.72;29.65;;;;;;;5.74;73.55;100594.28;4937669;29;20140;-80
2022/03/04 01:54:27;;;;;;;54.92;30.05;;;;;;;5.66;72.15;100591.97;4937769;29;20400;-81
2022/03/04 01:56:55;;;;;;;65.55;30.70;;;;;;;5.72;71.69;100588.25;4938096;29;20070;-80
2022/03/04 01:59:23;;;;;;;63.47;31.27;;;;;;;5.69;72.57;100583.34;4938526;29;20051;-81
2022/03/04 02:01:54;;;;;;;63.40;30.27;;;;;;;5.60;73.74;100585.66;4937474;29;20063;-81
2022/03/04 02:04:23;;;;;;;60.92;30.58;;;;;;;5.64;76.52;100585.97;4920821;29;20060;-80
2022/03/04 02:06:52;;;;;;;57.58;30.27;;;;;;;5.56;75.52;100579.06;4937396;29;20129;-80
2022/03/04 02:09:20;;;;;;;57.72;30.02;;;;;;;5.54;77.99;100583.91;4937669;29;20051;-81
2022/03/04 02:11:48;;;;;;;62.35;31.45;;;;;;;5.50;78.20;100582.75;4937409;29;20040;-81
2022/03/04 02:14:17;;;;;;;60.42;31.58;;;;;;;5.48;80.96;100580.28;4936882;29;20047;-81
2022/03/04 02:16:51;;;;;;;56.30;29.27;;;;;;;5.56;79.79;100579.06;4921010;29;20046;-81
2022/03/04 02:19:21;;;;;;;53.95;29.98;;;;;;;5.54;80.85;100577.66;4937804;29;20403;-81
2022/03/04 02:21:54;;;;;;;55.63;29.92;;;;;;;5.56;81.29;100579.06;4937148;29;20055;-81
2022/03/04 02:24:24;;;;;;;66.53;31.35;;;;;;;5.55;84.10;100577.41;4938122;29;20498;-80
2022/03/04 02:26:53;;;;;;;59.08;30.95;;;;;;;5.51;84.78;100578.97;4937769;29;20499;-81
2022/03/04 02:29:22;;;;;;;54.38;31.33;;;;;;;5.48;87.25;100582.19;4944165;28;20047;-81
2022/03/04 02:31:51;;;;;;;62.55;31.30;;;;;;;5.49;87.90;100578.41;4944329;29;20486;-80
2022/03/04 02:34:20;;;;;;;56.97;29.90;;;;;;;5.73;85.59;100575.53;4936869;29;20063;-80
2022/03/04 02:36:49;;;;;;;61.40;31.90;;;;;;;5.69;85.26;100585.22;4936991;29;20056;-81
2022/03/04 02:39:17;;;;;;;55.65;31.10;;;;;;;5.51;86.26;100585.22;4937233;29;20047;-80
2022/03/04 02:41:45;;;;;;;60.67;31.42;;;;;;;5.48;84.27;100576.75;4936957;29;20495;-80
2022/03/04 02:44:14;;;;;;;60.08;31.42;;;;;;;5.46;84.80;100589.72;4937200;29;20051;-80
2022/03/04 02:46:43;;;;;;;56.65;30.75;;;;;;;5.51;84.32;100587.13;4937648;29;20055;-80
2022/03/04 02:49:11;;;;;;;59.22;32.95;;;;;;;5.48;84.37;100588.41;4936162;29;20059;-80
2022/03/04 02:51:42;;;;;;;56.50;30.50;;;;;;;5.24;86.32;100588.56;4937212;29;20056;-80
2022/03/04 02:54:10;;;;;;;61.15;30.48;;;;;;;5.05;87.05;100590.66;4935903;29;20051;-80
2022/03/04 02:56:38;;;;;;;57.83;31.23;;;;;;;4.96;88.28;100586.69;4935736;29;20048;-80
2022/03/04 02:59:05;;;;;;;58.70;29.67;;;;;;;4.89;88.56;100594.16;4936951;29;20411;-80
2022/03/04 03:01:33;;;;;;;59.83;29.98;;;;;;;4.89;89.41;100594.94;4936511;29;20059;-80
2022/03/04 03:04:02;;;;;;;62.67;30.42;;;;;;;4.87;89.23;100588.13;4936231;29;20407;-80
2022/03/04 03:06:31;;;;;;;62.72;32.33;;;;;;;4.91;88.89;100589.28;4937277;29;20047;-80
2022/03/04 03:08:59;;;;;;;55.72;30.42;;;;;;;4.91;88.01;100594.72;4936631;29;20059;-81
2022/03/04 03:11:26;;;;;;;58.30;31.02;;;;;;;4.90;88.34;100590.38;4920087;29;20052;-80
2022/03/04 03:13:54;;;;;;;64.18;31.70;;;;;;;4.87;89.03;100594.38;4919999;29;20052;-80
2022/03/04 03:16:22;;;;;;;59.88;30.60;;;;;;;4.85;89.96;100585.69;4919997;29;20048;-80
2022/03/04 03:18:50;;;;;;;59.72;32.60;;;;;;;4.81;90.58;100579.06;4936237;29;20055;-80
2022/03/04 03:21:18;;;;;;;61.55;31.02;;;;;;;4.79;91.00;100582.03;4938722;29;20483;-80
2022/03/04 03:23:46;;;;;;;64.82;31.38;;;;;;;4.75;91.34;100578.16;4935639;29;20056;-80
2022/03/04 03:26:14;;;;;;;56.95;31.80;;;;;;;4.73;91.39;100582.19;4937116;29;20028;-80
2022/03/04 03:28:42;;;;;;;64.47;30.73;;;;;;;4.70;91.48;100581.59;4936136;29;20503;-80
2022/03/04 03:31:10;;;;;;;62.20;30.63;;;;;;;4.69;91.09;100584.53;4936046;29;20051;-80
2022/03/04 03:33:40;;;;;;;67.22;32.40;;;;;;;4.67;91.13;100583.94;4935219;29;20393;-79
2022/03/04 03:36:09;;;;;;;64.20;31.52;;;;;;;4.66;91.50;100582.31;4936245;29;20055;-80
2022/03/04 03:38:37;;;;;;;61.28;30.02;;;;;;;4.66;92.36;100590.44;4936501;29;20056;-80
2022/03/04 03:41:04;;;;;;;61.30;32.08;;;;;;;4.67;92.91;100583.94;4935437;29;20132;-80
2022/03/04 03:43:41;;;;;;;60.70;31.58;;;;;;;4.67;92.71;100587.50;4935771;29;20058;-81
2022/03/04 03:46:09;;;;;;;64.75;32.30;;;;;;;4.67;91.81;100590.22;4935779;29;20047;-80
2022/03/04 03:48:39;;;;;;;67.30;32.03;;;;;;;4.66;92.15;100594.00;4937075;29;20054;-80
2022/03/04 03:51:09;;;;;;;61.53;32.60;;;;;;;4.69;92.43;100592.66;4935342;29;20040;-80
2022/03/04 03:53:38;;;;;;;64.20;33.53;;;;;;;4.70;91.87;100591.63;4934981;29;20075;-80
2022/03/04 03:56:06;;;;;;;65.72;33.00;;;;;;;4.77;91.49;100595.00;4935458;29;20078;-80
2022/03/04 03:58:34;;;;;;;63.40;31.60;;;;;;;4.78;90.96;100591.22;4935399;29;20047;-80
2022/03/04 04:01:04;;;;;;;65.13;32.80;;;;;;;4.80;91.24;100593.72;4935942;29;20047;-81
2022/03/04 04:03:33;;;;;;;61.33;31.13;;;;;;;4.82;89.00;100602.41;4935375;29;20052;-80
2022/03/04 04:06:01;;;;;;;60.53;30.60;;;;;;;4.82;86.64;100597.81;4936099;29;20046;-80
2022/03/04 04:08:29;;;;;;;59.20;31.50;;;;;;;4.83;85.45;100598.63;4935465;29;20059;-80
2022/03/04 04:10:58;;;;;;;63.30;32.08;;;;;;;4.80;85.93;100605.34;4935680;29;20066;-81
2022/03/04 04:13:26;;;;;;;62.47;31.63;;;;;;;4.91;84.36;100605.56;4934702;29;20051;-81
2022/03/04 04:15:54;;;;;;;62.83;31.30;;;;;;;5.08;82.12;100606.44;4935809;29;20040;-81
2022/03/04 04:18:22;;;;;;;64.18;31.80;;;;;;;5.16;82.00;100613.38;4935725;29;20506;-81
2022/03/04 04:20:50;;;;;;;71.32;32.55;;;;;;;4.90;84.74;100614.78;4935053;29;20047;-81
2022/03/04 04:23:18;;;;;;;58.33;31.92;;;;;;;4.69;86.34;100619.78;4935409;29;20047;-81
2022/03/04 04:25:45;;;;;;;58.15;30.27;;;;;;;4.45;87.32;100625.22;4935220;29;20063;-81
2022/03/04 04:28:13;;;;;;;61.67;31.48;;;;;;;4.23;87.75;100623.16;4918295;29;20044;-80
2022/03/04 04:30:41;;;;;;;66.15;31.27;;;;;;;4.07;89.32;100607.59;4936340;29;20507;-80
2022/03/04 04:33:09;;;;;;;61.35;30.92;;;;;;;3.98;90.20;100610.66;4935745;29;20054;-80
2022/03/04 04:35:37;;;;;;;59.30;30.58;;;;;;;3.88;91.47;100610.41;4935030;29;20055;-81
2022/03/04 04:38:05;;;;;;;64.88;33.45;;;;;;;3.81;92.63;100612.41;4935992;29;20491;-80
2022/03/04 04:40:33;;;;;;;55.78;29.98;;;;;;;3.78;93.29;100613.72;4935243;29;20506;-80
2022/03/04 04:43:01;;;;;;;63.53;30.83;;;;;;;3.71;93.77;100621.13;4934975;29;20414;-81
2022/03/04 04:45:29;;;;;;;61.08;32.38;;;;;;;3.68;94.30;100616.16;4935060;29;20403;-81
2022/03/04 04:47:56;;;;;;;59.15;31.65;;;;;;;3.70;95.08;100614.03;4935357;29;20054;-80
2022/03/04 04:50:24;;;;;;;63.05;32.67;;;;;;;3.75;94.94;100616.88;4934366;29;20044;-81
2022/03/04 04:52:52;;;;;;;63.22;31.35;;;;;;;3.71;94.28;100621.13;4917959;29;20047;-81
2022/03/04 04:55:20;;;;;;;64.60;32.85;;;;;;;3.64;93.93;100618.50;4935037;29;20048;-81
2022/03/04 04:57:48;;;;;;;67.47;32.58;;;;;;;3.52;94.66;100626.59;4934444;29;20499;-81
2022/03/04 05:00:17;;;;;;;64.40;31.50;;;;;;;3.53;94.53;100624.72;4935431;29;20483;-79
2022/03/04 05:02:45;;;;;;;66.25;33.05;;;;;;;3.41;95.17;100630.91;4935470;29;20066;-81
2022/03/04 05:05:13;;;;;;;63.05;32.47;;;;;;;3.35;95.30;100621.03;4934637;29;20056;-81
2022/03/04 05:07:41;;;;;;;66.38;32.80;;;;;;;3.28;95.66;100623.81;4933938;29;20083;-81
2022/03/04 05:10:09;;;;;;;68.88;34.47;;;;;;;3.52;94.05;100623.06;4934164;29;20054;-81
2022/03/04 05:12:37;;;;;;;71.03;32.45;;;;;;;3.49;94.72;100629.78;4934664;29;20529;-81
2022/03/04 05:15:06;;;;;;;62.35;32.10;;;;;;;3.36;94.57;100628.91;4938333;29;20047;-81
2022/03/04 05:17:34;;;;;;;64.50;31.80;;;;;;;3.32;95.13;100624.22;4934775;29;20048;-81
2022/03/04 05:20:03;;;;;;;65.95;32.10;;;;;;;3.28;95.61;100623.00;4934428;29;20384;-81
2022/03/04 05:22:31;;;;;;;64.05;32.60;;;;;;;3.19;96.09;100639.53;4933649;29;20415;-81
2022/03/04 05:25:00;;;;;;;63.17;31.88;;;;;;;3.15;95.42;100632.97;4930754;29;20057;-80
2022/03/04 05:27:30;;;;;;;67.88;32.38;;;;;;;3.19;95.62;100636.03;4933293;29;20503;-81
2022/03/04 05:29:57;;;;;;;71.55;32.97;;;;;;;3.31;95.52;100644.16;4934392;29;20044;-81
2022/03/04 05:32:25;;;;;;;72.63;33.97;;;;;;;3.35;96.03;100639.97;4932861;29;20368;-82
2022/03/04 05:34:53;;;;;;;62.13;32.60;;;;;;;3.66;94.07;100632.63;4932934;29;20055;-81
2022/03/04 05:37:21;;;;;;;59.75;30.13;;;;;;;3.66;93.92;100635.34;4931329;29;20484;-82
2022/03/04 05:39:49;;;;;;;67.43;32.50;;;;;;;3.63;94.76;100633.91;4933269;29;20057;-81
2022/03/04 05:42:17;;;;;;;58.13;30.90;;;;;;;3.76;93.26;100635.59;4933451;29;20411;-81
2022/03/04 05:44:45;;;;;;;57.08;31.38;;;;;;;3.74;93.42;100637.72;4934482;29;20044;-82
2022/03/04 05:47:13;;;;;;;59.78;29.30;;;;;;;3.78;92.20;100627.25;4934223;29;20506;-82
2022/03/04 05:49:41;;;;;;;64.18;32.00;;;;;;;3.87;91.32;100635.84;4927718;29;20071;-81
2022/03/04 05:52:09;;;;;;;70.63;32.00;;;;;;;3.79;91.13;100644.28;4933501;29;20048;-81
2022/03/04 05:54:37;;;;;;;59.38;30.42;;;;;;;3.62;92.62;100634.16;4933819;29;20055;-81
2022/03/04 05:57:06;;;;;;;63.58;31.45;;;;;;;3.55;93.01;100638.84;4933447;29;20043;-81
2022/03/04 05:59:34;;;;;;;64.78;30.40;;;;;;;3.44;93.00;100646.72;4933006;29;20059;-81
2022/03/04 06:02:02;;;;;;;63.25;29.58;;;;;;;3.44;93.03;100651.28;4930674;29;20055;-81
2022/03/04 06:04:30;;;;;;;63.40;29.45;;;;;;;3.34;93.01;100654.53;4932510;29;20047;-80
2022/03/04 06:06:58;;;;;;;57.35;28.20;;;;;;;3.32;92.97;100657.47;4936628;29;20051;-79
2022/03/04 06:09:28;;;;;;;58.33;28.40;;;;;;;3.42;92.76;100662.31;4917569;29;20040;-79
2022/03/04 06:11:56;;;;;;;59.10;30.08;;;;;;;3.80;90.73;100660.31;4918625;29;20058;-79
2022/03/04 06:14:24;;;;;;;63.15;30.42;;;;;;;3.95;88.81;100659.06;4934538;29;20376;-80
2022/03/04 06:16:52;;;;;;;61.35;29.80;;;;;;;4.18;88.54;100663.66;4936239;29;20058;-79
2022/03/04 06:19:20;;;;;;;61.92;30.25;;;;;;;4.54;86.21;100667.19;4900727;29;20106;-78
2022/03/04 06:21:49;;;;;;;54.63;27.75;;;;;;;4.87;84.65;100672.19;4917872;29;20051;-79
2022/03/04 06:24:17;;;;;;;59.72;29.52;;;;;;;4.83;83.65;100672.69;4902959;29;20422;-78
2022/03/04 06:26:46;;;;;;;60.63;29.27;;;;;;;4.90;82.80;100671.72;4903315;29;20059;-79
2022/03/04 06:29:14;;;;;;;54.97;29.77;;;;;;;4.99;82.41;100673.00;4901695;29;20059;-79
2022/03/04 06:31:46;;;;;;;55.67;29.83;;;;;;;4.96;82.11;100671.59;4919098;29;20048;-78
2022/03/04 06:34:15;;;;;;;59.38;29.70;;;;;;;5.09;81.98;100673.19;4919323;29;20399;-78
2022/03/04 06:36:42;;;;;;;58.97;29.08;;;;;;;5.21;81.18;100681.31;4919342;29;20873;-78
2022/03/04 06:39:10;;;;;;;59.53;29.83;;;;;;;5.04;82.13;100675.00;4903934;29;20517;-78
2022/03/04 06:41:39;;;;;;;58.17;29.25;;;;;;;5.03;82.02;100685.00;4934129;29;20055;-78
2022/03/04 06:44:09;;;;;;;61.88;29.45;;;;;;;5.20;81.37;100685.09;4919536;29;20503;-80
2022/03/04 06:46:37;;;;;;;60.00;29.60;;;;;;;5.17;80.93;100690.16;4936925;29;20048;-80
2022/03/04 06:49:10;;;;;;;64.90;30.33;;;;;;;5.11;80.77;100698.22;4936577;29;20050;-81
2022/03/04 06:51:39;;;;;;;62.08;30.00;;;;;;;5.03;81.51;100704.00;4937348;29;20054;-80
2022/03/04 06:54:07;;;;;;;53.50;28.27;;;;;;;5.12;80.22;100704.44;4936291;29;20047;-81
2022/03/04 06:56:35;;;;;;;59.20;28.17;;;;;;;5.05;80.69;100704.59;4937541;29;20043;-82
2022/03/04 06:59:03;;;;;;;57.03;28.65;;;;;;;5.09;80.72;100708.47;4937772;29;20123;-79
2022/03/04 07:01:31;;;;;;;58.55;28.60;;;;;;;5.14;80.73;100699.63;4936020;29;20173;-80
2022/03/04 07:03:59;;;;;;;57.85;28.63;;;;;;;5.18;80.42;100708.91;4935986;29;20063;-80
2022/03/04 07:06:26;;;;;;;54.65;28.38;;;;;;;5.36;79.04;100707.09;4936930;29;20048;-80
2022/03/04 07:08:54;;;;;;;60.72;28.58;;;;;;;5.38;78.43;100708.50;4936631;29;20059;-81
2022/03/04 07:11:28;;;;;;;57.05;28.38;;;;;;;5.55;77.23;100702.28;4936361;29;20059;-80
2022/03/04 07:13:55;;;;;;;57.03;29.05;;;;;;;5.72;76.34;100709.66;4935413;29;20056;-80
2022/03/04 07:16:23;;;;;;;51.65;27.30;;;;;;;6.02;76.04;100711.25;4935531;29;20059;-80
2022/03/04 07:18:51;;;;;;;59.60;29.23;;;;;;;6.12;76.81;100718.78;4935589;29;20514;-80
2022/03/04 07:21:19;;;;;;;53.72;28.95;;;;;;;6.03;76.89;100710.22;4935928;29;20048;-80
2022/03/04 07:23:47;;;;;;;56.95;29.75;;;;;;;6.07;76.56;100714.09;4935349;29;20055;-81
2022/03/04 07:26:16;;;;;;;56.30;27.83;;;;;;;6.15;76.58;100718.28;4935673;29;20060;-80
2022/03/04 07:28:44;;;;;;;55.30;27.85;;;;;;;6.26;75.55;100716.56;4918861;29;20521;-81
2022/03/04 07:31:12;;;;;;;57.40;29.15;;;;;;;6.39;74.39;100713.50;4935635;29;20055;-81
2022/03/04 07:33:40;;;;;;;58.92;29.05;;;;;;;6.45;74.44;100715.22;4935390;29;20503;-81
2022/03/04 07:36:08;;;;;;;58.42;29.25;;;;;;;6.72;72.66;100719.13;4935718;29;20070;-81
2022/03/04 07:38:37;;;;;;;56.92;28.45;;;;;;;7.01;71.22;100719.00;4937248;29;20415;-81
2022/03/04 07:41:05;;;;;;;62.88;29.85;;;;;;;7.03;68.34;100724.19;4903696;29;20052;-81
2022/03/04 07:43:33;;;;;;;56.38;29.48;;;;;;;7.20;69.01;100724.94;4935512;29;20518;-81
2022/03/04 07:46:01;;;;;;;56.15;31.17;;;;;;;7.43;68.06;100720.28;4936276;29;20040;-81
2022/03/04 07:48:29;;;;;;;56.83;29.08;;;;;;;7.61;68.20;100721.00;4935601;29;20068;-81
2022/03/04 07:50:57;;;;;;;56.42;28.63;;;;;;;7.88;69.34;100722.94;4935528;29;20054;-81
2022/03/04 07:53:25;;;;;;;60.28;31.23;;;;;;;8.22;69.36;100725.41;4935418;29;20047;-81
2022/03/04 07:55:53;;;;;;;56.85;31.83;;;;;;;8.05;70.20;100729.09;4935508;29;20064;-81
2022/03/04 07:58:21;;;;;;;58.40;31.58;;;;;;;8.04;69.63;100738.34;4934883;29;20487;-81
2022/03/04 08:00:49;;;;;;;58.53;31.30;;;;;;;8.23;68.59;100728.94;4948639;29;20419;-81
2022/03/04 08:03:37;;;;;;;61.63;31.58;;;;;;;8.68;67.83;100729.56;4924213;29;20055;-81
2022/03/04 08:06:05;;;;;;;58.88;31.05;;;;;;;8.75;66.94;100724.69;4935138;29;20419;-81
2022/03/04 08:08:34;;;;;;;63.08;30.08;;;;;;;8.82;66.74;100722.56;4942411;29;20058;-81
2022/03/04 08:11:03;;;;;;;63.22;31.35;;;;;;;8.84;65.60;100727.75;4941722;29;20044;-81
2022/03/04 08:13:31;;;;;;;59.70;32.97;;;;;;;8.67;65.33;100733.38;4934643;29;20521;-82
2022/03/04 08:15:59;;;;;;;63.67;31.90;;;;;;;8.98;65.56;100730.81;4934774;29;20054;-82
2022/03/04 08:18:27;;;;;;;62.58;32.20;;;;;;;9.06;65.24;100729.50;4935751;29;20055;-81
2022/03/04 08:20:56;;;;;;;59.58;33.03;;;;;;;9.04;64.50;100726.22;4933819;29;20402;-81
2022/03/04 08:23:24;;;;;;;62.55;32.70;;;;;;;9.44;62.90;100729.38;4934955;29;20055;-81
2022/03/04 08:25:51;;;;;;;62.80;33.33;;;;;;;9.71;64.52;100728.31;4935659;29;20051;-81
2022/03/04 08:28:20;;;;;;;62.00;32.58;;;;;;;9.95;60.26;100729.47;4935284;29;20399;-81
2022/03/04 08:30:48;;;;;;;62.30;32.85;;;;;;;10.04;62.07;100726.19;4935372;29;20403;-81
2022/03/04 08:33:16;;;;;;;60.92;32.53;;;;;;;10.14;58.82;100739.03;4934274;29;20062;-81
2022/03/04 08:35:44;;;;;;;54.40;30.50;;;;;;;10.02;59.54;100739.31;4935334;29;20043;-81
2022/03/04 08:38:12;;;;;;;61.15;33.17;;;;;;;10.04;58.35;100737.13;4934369;29;20407;-81
2022/03/04 08:40:40;;;;;;;63.92;32.97;;;;;;;10.13;58.88;100735.50;4934300;29;20091;-81
2022/03/04 08:43:08;;;;;;;59.80;30.83;;;;;;;10.39;57.76;100746.44;4933821;29;20055;-82
2022/03/04 08:45:36;;;;;;;59.50;30.73;;;;;;;10.59;56.25;100737.41;4934641;29;20048;-82
2022/03/04 08:48:06;;;;;;;58.97;31.40;;;;;;;10.58;56.49;100748.63;4934344;29;20058;-81
2022/03/04 08:50:34;;;;;;;56.47;29.50;;;;;;;11.10;57.40;100756.72;4935538;29;20043;-81
2022/03/04 08:53:08;;;;;;;58.63;28.20;;;;;;;10.62;51.72;100745.06;4934150;29;20056;-81
2022/03/04 08:55:36;;;;;;;54.53;26.65;;;;;;;10.69;51.03;100753.00;4934468;29;20055;-81
2022/03/04 08:58:04;;;;;;;61.20;25.88;;;;;;;10.96;48.56;100756.50;4934575;29;20050;-81
2022/03/04 09:00:32;;;;;;;49.95;26.02;;;;;;;10.64;49.13;100753.00;4935314;29;20052;-82
2022/03/04 09:03:00;;;;;;;52.67;26.15;;;;;;;10.92;50.38;100749.94;4918537;29;20043;-82
2022/03/04 09:05:30;;;;;;;48.15;23.63;;;;;;;10.75;49.23;100749.16;4933996;29;20059;-81
2022/03/04 09:07:59;;;;;;;49.38;25.13;;;;;;;10.61;49.30;100757.09;4935115;29;20051;-81
2022/03/04 09:10:27;;;;;;;53.10;24.13;;;;;;;10.33;49.82;100750.25;4934198;29;20051;-81
2022/03/04 09:12:55;;;;;;;50.80;24.85;;;;;;;10.43;50.22;100744.84;4934385;29;20547;-80
2022/03/04 09:15:24;;;;;;;48.33;23.88;;;;;;;10.78;49.22;100746.94;4934440;29;20071;-81
2022/03/04 09:17:51;;;;;;;52.72;24.98;;;;;;;11.06;47.86;100736.47;4934858;29;20056;-80
2022/03/04 09:20:19;;;;;;;47.83;22.83;;;;;;;10.53;49.13;100743.16;4933592;29;20052;-81
2022/03/04 09:22:47;;;;;;;45.67;24.20;;;;;;;10.65;48.44;100732.75;4921627;29;20052;-81
2022/03/04 09:25:16;;;;;;;47.75;24.40;;;;;;;10.70;48.79;100732.72;4934473;29;20056;-81
2022/03/04 09:27:46;;;;;;;46.05;23.73;;;;;;;10.77;48.54;100735.19;4934137;29;20067;-81
2022/03/04 09:30:14;;;;;;;48.72;23.65;;;;;;;10.73;45.76;100736.84;4934178;29;20403;-80
2022/03/04 09:32:42;;;;;;;44.65;22.38;;;;;;;10.99;46.18;100734.03;4933434;29;20048;-81
2022/03/04 09:35:10;;;;;;;42.72;20.35;;;;;;;11.28;43.08;100728.72;4917306;29;20051;-81
2022/03/04 09:37:38;;;;;;;38.58;18.48;;;;;;;11.68;41.46;100726.03;4934157;29;20052;-81
2022/03/04 09:40:08;;;;;;;37.25;19.00;;;;;;;11.65;40.67;100742.22;4936177;29;20055;-81
2022/03/04 09:42:36;;;;;;;39.20;18.38;;;;;;;11.09;39.44;100727.72;4938499;29;20048;-81
2022/03/04 09:45:05;;;;;;;34.47;16.90;;;;;;;11.54;39.75;100720.34;4938053;29;20059;-81
2022/03/04 09:47:34;;;;;;;38.17;17.00;;;;;;;11.55;37.68;100730.22;4938572;29;20530;-81
2022/03/04 09:50:05;;;;;;;31.40;16.45;;;;;;;11.34;37.87;100734.97;4938025;29;20403;-81
2022/03/04 09:52:34;;;;;;;31.40;16.95;;;;;;;11.36;38.45;100721.84;4937436;29;20067;-81
2022/03/04 09:55:02;;;;;;;31.48;15.45;;;;;;;11.90;38.17;100726.72;4937632;29;20415;-81
2022/03/04 09:57:30;;;;;;;31.55;16.48;;;;;;;11.79;38.13;100737.75;4937205;29;20055;-81
2022/03/04 09:59:59;;;;;;;28.27;13.98;;;;;;;11.37;36.50;100734.44;4920689;29;20039;-81
2022/03/04 10:02:33;;;;;;;27.00;14.20;;;;;;;11.05;36.89;100721.16;4937713;29;20062;-81
2022/03/04 10:05:02;;;;;;;;;;;;;;;11.58;36.41;100723.34;4937296;29;20059;-81
2022/03/04 10:07:39;;;;;;;29.08;14.45;;;;;;;11.63;36.62;100720.56;4937009;29;19923;-80
2022/03/04 10:10:13;;;;;;;24.92;12.80;;;;;;;11.35;35.71;100722.09;4937509;29;20063;-80
2022/03/04 10:12:50;;;;;;;26.58;13.52;;;;;;;11.73;37.13;100718.88;4937243;29;20051;-80
2022/03/04 10:15:19;;;;;;;29.42;14.77;;;;;;;11.60;35.65;100718.41;4920205;29;20047;-81
2022/03/04 10:18:03;;;;;;;29.08;15.25;;;;;;;11.11;36.37;100717.28;4938419;29;20054;-81
2022/03/04 10:20:43;;;;;;;26.23;13.97;;;;;;;11.59;35.58;100714.00;4936747;29;20059;-81
2022/03/04 10:23:13;;;;;;;25.23;13.07;;;;;;;11.81;36.32;100721.84;4937973;29;20063;-81
2022/03/04 10:25:51;;;;;;;29.15;15.13;;;;;;;11.25;35.44;100723.78;4936635;29;20418;-81
2022/03/04 10:28:23;;;;;;;30.48;15.07;;;;;;;11.36;36.63;100721.00;4937468;29;20055;-81
2022/03/04 10:30:53;;;;;;;29.13;15.48;;;;;;;11.61;35.60;100724.69;4936320;29;20499;-81
2022/03/04 10:33:26;;;;;;;27.38;14.55;;;;;;;11.91;35.81;100711.88;4937208;29;20075;-81
2022/03/04 10:36:10;;;;;;;30.15;16.15;;;;;;;11.86;35.52;100715.50;4937520;29;20525;-80
2022/03/04 10:38:39;;;;;;;32.00;16.38;;;;;;;12.31;35.15;100707.19;4937144;29;20051;-82
2022/03/04 10:41:29;;;;;;;30.90;15.38;;;;;;;12.26;36.41;100706.44;4936665;29;20521;-82
2022/03/04 10:43:57;;;;;;;31.10;15.90;;;;;;;12.19;35.66;100702.13;4937352;29;20117;-80
2022/03/04 10:46:25;;;;;;;29.23;14.93;;;;;;;12.38;36.13;100697.81;4937291;29;20040;-81
2022/03/04 10:48:55;;;;;;;28.40;15.05;;;;;;;12.19;35.06;100696.63;4937213;29;20503;-81
2022/03/04 10:51:36;;;;;;;32.90;15.55;;;;;;;12.22;35.00;100701.53;4936800;29;20040;-81
2022/03/04 10:54:15;;;;;;;31.38;16.05;;;;;;;11.80;35.34;100687.31;4936560;29;20066;-81
2022/03/04 10:56:51;;;;;;;32.15;15.10;;;;;;;12.03;35.50;100693.13;4936213;29;20063;-81
2022/03/04 10:59:20;;;;;;;31.60;15.25;;;;;;;12.22;34.66;100693.28;4936559;29;20050;-81
2022/03/04 11:01:50;;;;;;;27.08;14.82;;;;;;;12.26;33.95;100677.06;4936613;29;20483;-81
2022/03/04 11:04:19;;;;;;;27.67;14.15;;;;;;;12.38;34.66;100679.44;4936096;29;20086;-81
2022/03/04 11:06:49;;;;;;;26.25;12.70;;;;;;;12.84;32.96;100693.75;4936750;29;20059;-81
2022/03/04 11:09:24;;;;;;;23.70;12.75;;;;;;;12.60;32.76;100678.94;4936335;29;20058;-81
2022/03/04 11:11:53;;;;;;;27.83;14.52;;;;;;;12.63;33.14;100689.31;4936049;29;20388;-80
2022/03/04 11:14:22;;;;;;;27.75;14.80;;;;;;;12.87;34.16;100691.25;4935881;29;20063;-81
2022/03/04 11:16:50;;;;;;;29.35;14.85;;;;;;;13.12;32.17;100680.25;4935903;29;20056;-81
2022/03/04 11:19:19;;;;;;;25.67;13.57;;;;;;;13.27;32.98;100670.97;4936539;29;20043;-81
2022/03/04 11:21:47;;;;;;;25.75;13.65;;;;;;;13.41;32.16;100671.84;4935749;29;20056;-81